Time;durP1;ratioP1;P1;durP2;ratioP2;P2;SDS_P1;SDS_P2;PMS_P1;PMS_P2;Temp;Humidity;BMP_temperature;BMP_pressure;BME280_temperature;BME280_humidity;BME280_pressure;Samples;Min_cycle;Max_cycle;Signal;HPM_P1;HPM_P2
2021/04/12 00:02:05;;;;;;;0.80;0.80;;;;;;;;;;5140673;27;20232;-75
2021/04/12 00:04:35;;;;;;;0.60;0.60;;;;;;;;;;5140026;27;20591;-75
2021/04/12 00:07:05;;;;;;;0.80;0.80;;;;;;;;;;5140246;27;20228;-75
2021/04/12 00:09:37;;;;;;;0.80;0.80;;;;;;;;;;5138929;27;20256;-75
2021/04/12 00:12:07;;;;;;;0.77;0.77;;;;;;;;;;5140042;27;20291;-75
2021/04/12 00:14:37;;;;;;;0.80;0.80;;;;;;;;;;5139868;27;20278;-75
2021/04/12 00:17:08;;;;;;;0.63;0.63;;;;;;;;;;5140425;27;20237;-75
2021/04/12 00:19:39;;;;;;;0.67;0.67;;;;;;;;;;5140009;27;20211;-75
2021/04/12 00:22:09;;;;;;;1.43;0.50;;;;;;;;;;5140218;27;20671;-75
2021/04/12 00:24:39;;;;;;;0.80;0.80;;;;;;;;;;5139097;27;20267;-75
2021/04/12 00:27:08;;;;;;;1.03;0.87;;;;;;;;;;5139568;27;20626;-75
2021/04/12 00:29:39;;;;;;;1.33;0.97;;;;;;;;;;5139547;27;20307;-75
2021/04/12 00:32:11;;;;;;;1.57;1.10;;;;;;;;;;5140100;27;20267;-75
2021/04/12 00:34:43;;;;;;;0.77;0.77;;;;;;;;;;5134692;27;20256;-75
2021/04/12 00:37:12;;;;;;;1.10;0.70;;;;;;;;;;5119207;28;20228;-75
2021/04/12 00:39:41;;;;;;;1.10;0.80;;;;;;;;;;5118635;28;20277;-75
2021/04/12 00:42:19;;;;;;;1.80;0.97;;;;;;;;;;5118992;28;20243;-75
2021/04/12 00:44:55;;;;;;;0.77;0.77;;;;;;;;;;5118821;28;20240;-75
2021/04/12 00:47:31;;;;;;;0.83;0.83;;;;;;;;;;5109739;28;20284;-75
2021/04/12 00:50:05;;;;;;;0.90;0.87;;;;;;;;;;5119011;28;20200;-75
2021/04/12 00:52:43;;;;;;;1.73;1.10;;;;;;;;;;5118593;28;20662;-75
2021/04/12 00:55:19;;;;;;;1.20;1.10;;;;;;;;;;5118218;28;20733;-75
2021/04/12 00:57:53;;;;;;;1.30;1.20;;;;;;;;;;5118807;28;20208;-75
2021/04/12 01:00:23;;;;;;;1.20;1.10;;;;;;;;;;5118419;28;20301;-75
2021/04/12 01:03:01;;;;;;;1.30;1.20;;;;;;;;;;5118766;28;20272;-74
2021/04/12 01:05:34;;;;;;;1.67;1.57;;;;;;;;;;5118625;28;20256;-73
2021/04/12 01:08:12;;;;;;;1.40;1.30;;;;;;;;;;5118555;28;20253;-74
2021/04/12 01:11:03;;;;;;;3.23;1.80;;;;;;;;;;5118500;27;20299;-75
2021/04/12 01:13:53;;;;;;;2.00;1.73;;;;;;;;;;5118426;28;20240;-75
2021/04/12 01:16:36;;;;;;;1.73;1.57;;;;;;;;;;5102963;28;20312;-75
2021/04/12 01:19:17;;;;;;;2.30;1.87;;;;;;;;;;5118668;28;20292;-74
2021/04/12 01:22:02;;;;;;;2.23;1.90;;;;;;;;;;5118227;28;20233;-74
2021/04/12 01:24:51;;;;;;;2.47;2.00;;;;;;;;;;5117727;28;20666;-76
2021/04/12 01:27:28;;;;;;;2.40;2.13;;;;;;;;;;5118406;28;20287;-76
2021/04/12 01:30:13;;;;;;;3.33;2.30;;;;;;;;;;5118118;28;20229;-74
2021/04/12 01:32:59;;;;;;;4.13;2.37;;;;;;;;;;5118035;28;20645;-74
2021/04/12 01:35:36;;;;;;;2.60;2.40;;;;;;;;;;5118251;28;20221;-74
2021/04/12 01:38:14;;;;;;;4.17;2.83;;;;;;;;;;5118005;28;20205;-75
2021/04/12 01:40:48;;;;;;;2.97;2.67;;;;;;;;;;5117723;28;20670;-75
2021/04/12 01:43:18;;;;;;;3.00;2.70;;;;;;;;;;5118019;28;20204;-73
2021/04/12 01:45:49;;;;;;;3.63;3.20;;;;;;;;;;5118098;28;20256;-74
2021/04/12 01:48:24;;;;;;;3.20;2.90;;;;;;;;;;5109302;28;20224;-74
2021/04/12 01:51:15;;;;;;;4.03;3.70;;;;;;;;;;5118176;28;20282;-75
2021/04/12 01:53:54;;;;;;;3.00;2.70;;;;;;;;;;5102566;28;20241;-75
2021/04/12 01:56:35;;;;;;;4.17;3.37;;;;;;;;;;5117498;28;20635;-75
2021/04/12 01:59:16;;;;;;;3.03;2.73;;;;;;;;;;5118151;28;20228;-74
2021/04/12 02:01:50;;;;;;;3.40;3.10;;;;;;;;;;5118094;28;20292;-76
2021/04/12 02:04:35;;;;;;;3.57;3.07;;;;;;;;;;5117908;28;20202;-75
2021/04/12 02:07:09;;;;;;;3.53;3.07;;;;;;;;;;5117857;28;20743;-76
2021/04/12 02:09:52;;;;;;;3.07;2.77;;;;;;;;;;5117748;28;20294;-76
2021/04/12 02:12:23;;;;;;;3.27;2.97;;;;;;;;;;5118078;28;20236;-75
2021/04/12 02:15:03;;;;;;;3.40;3.10;;;;;;;;;;5117991;28;20264;-74
2021/04/12 02:17:40;;;;;;;3.50;3.20;;;;;;;;;;5118085;28;20208;-74
2021/04/12 02:20:11;;;;;;;3.90;3.00;;;;;;;;;;5117780;28;20236;-76
2021/04/12 02:23:01;;;;;;;3.27;2.97;;;;;;;;;;5118080;28;20288;-76
2021/04/12 02:25:32;;;;;;;3.63;3.17;;;;;;;;;;5102014;28;20232;-74
2021/04/12 02:28:05;;;;;;;4.20;3.33;;;;;;;;;;5117695;28;20213;-74
2021/04/12 02:30:36;;;;;;;3.20;2.90;;;;;;;;;;5117644;28;20254;-75
2021/04/12 02:33:10;;;;;;;4.03;3.20;;;;;;;;;;5118887;28;20236;-76
2021/04/12 02:35:40;;;;;;;4.83;3.60;;;;;;;;;;5121414;28;20406;-75
2021/04/12 02:38:20;;;;;;;3.30;2.97;;;;;;;;;;5121298;28;20555;-75
2021/04/12 02:40:53;;;;;;;3.63;3.33;;;;;;;;;;5120795;28;20712;-76
2021/04/12 02:43:25;;;;;;;3.50;3.20;;;;;;;;;;5121347;28;20288;-76
2021/04/12 02:46:10;;;;;;;3.77;3.43;;;;;;;;;;5121129;28;21108;-76
2021/04/12 02:48:40;;;;;;;6.53;4.20;;;;;;;;;;5113494;28;20311;-76
2021/04/12 02:51:25;;;;;;;4.97;3.50;;;;;;;;;;5120978;28;20704;-75
2021/04/12 02:54:10;;;;;;;4.17;3.37;;;;;;;;;;5120781;27;20284;-74
2021/04/12 02:56:44;;;;;;;4.80;3.47;;;;;;;;;;5120467;28;20300;-75
2021/04/12 02:59:18;;;;;;;7.43;3.83;;;;;;;;;;5121438;27;20224;-75
2021/04/12 03:02:10;;;;;;;6.10;3.40;;;;;;;;;;5120830;28;20634;-75
2021/04/12 03:04:44;;;;;;;3.70;3.40;;;;;;;;;;5121013;28;20312;-74
2021/04/12 03:07:38;;;;;;;4.30;3.27;;;;;;;;;;5120943;27;20219;-76
2021/04/12 03:10:16;;;;;;;4.33;3.90;;;;;;;;;;5084072;28;20267;-74
2021/04/12 03:13:09;;;;;;;5.27;4.20;;;;;;;;;;5120598;28;20289;-73
2021/04/12 03:15:54;;;;;;;3.93;3.53;;;;;;;;;;5084593;28;20406;-74
2021/04/12 03:18:37;;;;;;;5.27;3.60;;;;;;;;;;5121133;27;20236;-75
2021/04/12 03:21:22;;;;;;;3.67;3.30;;;;;;;;;;5120698;28;20205;-76
2021/04/12 03:23:54;;;;;;;4.17;3.63;;;;;;;;;;5120411;28;20268;-74
2021/04/12 03:26:36;;;;;;;5.53;4.00;;;;;;;;;;5120398;28;20232;-74
2021/04/12 03:29:15;;;;;;;4.00;3.53;;;;;;;;;;5120541;28;20267;-76
2021/04/12 03:31:49;;;;;;;5.90;3.73;;;;;;;;;;5120374;27;20592;-74
2021/04/12 03:34:20;;;;;;;4.63;3.90;;;;;;;;;;5120098;28;20209;-75
2021/04/12 03:37:05;;;;;;;3.93;3.63;;;;;;;;;;5120420;28;20288;-75
2021/04/12 03:39:42;;;;;;;4.37;3.97;;;;;;;;;;5119903;28;20275;-76
2021/04/12 03:42:16;;;;;;;5.40;4.00;;;;;;;;;;5119950;28;20257;-74
2021/04/12 03:45:16;;;;;;;4.13;3.73;;;;;;;;;;5119891;28;20798;-75
2021/04/12 03:47:53;;;;;;;4.60;3.70;;;;;;;;;;5047364;28;20242;-75
2021/04/12 03:50:28;;;;;;;4.20;3.80;;;;;;;;;;5056959;28;20234;-75
2021/04/12 03:53:10;;;;;;;5.03;4.23;;;;;;;;;;5093222;28;20287;-75
2021/04/12 03:55:43;;;;;;;6.10;4.10;;;;;;;;;;5119371;28;20727;-75
2021/04/12 03:58:21;;;;;;;4.87;3.80;;;;;;;;;;5119859;27;20229;-75
2021/04/12 04:00:57;;;;;;;4.13;3.67;;;;;;;;;;5120097;28;20240;-75
2021/04/12 04:03:41;;;;;;;3.70;3.33;;;;;;;;;;5119574;28;20642;-75
2021/04/12 04:06:15;;;;;;;3.47;3.17;;;;;;;;;;5119697;27;20248;-75
2021/04/12 04:09:00;;;;;;;5.63;3.80;;;;;;;;;;5119591;28;20256;-75
2021/04/12 04:11:45;;;;;;;3.83;2.83;;;;;;;;;;5118976;28;20288;-75
2021/04/12 04:14:18;;;;;;;5.57;3.50;;;;;;;;;;5119360;28;20994;-75
2021/04/12 04:16:54;;;;;;;6.67;4.07;;;;;;;;;;5119170;28;20521;-75
2021/04/12 04:19:34;;;;;;;7.37;3.43;;;;;;;;;;5116954;28;20441;-74
2021/04/12 04:22:10;;;;;;;4.33;3.87;;;;;;;;;;5119312;28;20443;-74
2021/04/12 04:24:58;;;;;;;4.40;3.60;;;;;;;;;;5118592;28;20549;-74
2021/04/12 04:27:48;;;;;;;3.80;3.50;;;;;;;;;;5093068;27;20467;-74
2021/04/12 04:30:33;;;;;;;4.43;3.80;;;;;;;;;;5119032;28;20510;-74
2021/04/12 04:33:04;;;;;;;4.97;3.80;;;;;;;;;;5117630;28;20434;-74
2021/04/12 04:35:48;;;;;;;4.03;3.63;;;;;;;;;;5118448;28;20549;-74
2021/04/12 04:38:31;;;;;;;4.93;3.90;;;;;;;;;;5118743;28;20439;-74
2021/04/12 04:41:09;;;;;;;5.60;3.70;;;;;;;;;;5118252;28;20529;-75
2021/04/12 04:43:46;;;;;;;6.57;5.27;;;;;;;;;;5118797;28;20232;-74
2021/04/12 04:46:27;;;;;;;4.97;4.23;;;;;;;;;;5117090;28;20311;-74
2021/04/12 04:49:08;;;;;;;5.40;4.90;;;;;;;;;;5128029;27;20224;-74
2021/04/12 04:51:50;;;;;;;5.53;4.57;;;;;;;;;;5139535;27;20238;-75
2021/04/12 04:54:34;;;;;;;6.00;5.03;;;;;;;;;;5139424;27;20232;-74
2021/04/12 04:57:15;;;;;;;5.53;4.47;;;;;;;;;;5138878;27;20246;-74
2021/04/12 04:59:47;;;;;;;4.60;3.87;;;;;;;;;;5139119;27;20329;-74
2021/04/12 05:02:29;;;;;;;6.83;4.77;;;;;;;;;;5139292;27;20283;-74
2021/04/12 05:05:13;;;;;;;5.37;4.60;;;;;;;;;;5137070;27;20224;-74
2021/04/12 05:07:49;;;;;;;5.93;4.67;;;;;;;;;;5139311;27;20513;-74
2021/04/12 05:10:30;;;;;;;5.60;4.90;;;;;;;;;;5138729;27;20310;-73
2021/04/12 05:13:07;;;;;;;5.43;4.80;;;;;;;;;;5117785;28;20275;-73
2021/04/12 05:15:51;;;;;;;5.80;4.73;;;;;;;;;;5118856;27;20263;-72
2021/04/12 05:18:32;;;;;;;6.63;5.33;;;;;;;;;;5117096;28;20233;-72
2021/04/12 05:21:26;;;;;;;6.30;5.70;;;;;;;;;;5117968;27;20232;-72
2021/04/12 05:24:08;;;;;;;5.93;4.87;;;;;;;;;;5115589;28;20236;-72
2021/04/12 05:26:56;;;;;;;7.43;5.10;;;;;;;;;;5090042;28;20280;-72
2021/04/12 05:29:40;;;;;;;7.03;5.70;;;;;;;;;;5111805;28;20248;-72
2021/04/12 05:32:20;;;;;;;6.80;5.27;;;;;;;;;;5116132;28;20205;-73
2021/04/12 05:34:53;;;;;;;7.63;5.70;;;;;;;;;;5118847;28;20302;-72
2021/04/12 05:37:35;;;;;;;7.03;6.27;;;;;;;;;;5117170;28;20649;-72
2021/04/12 05:40:10;;;;;;;9.93;5.70;;;;;;;;;;5115040;28;20711;-73
2021/04/12 05:42:49;;;;;;;7.13;5.70;;;;;;;;;;5116395;28;20283;-72
2021/04/12 05:45:28;;;;;;;6.87;5.73;;;;;;;;;;5117186;28;20220;-72
2021/04/12 05:48:16;;;;;;;7.80;5.60;;;;;;;;;;5114955;28;20279;-72
2021/04/12 05:50:55;;;;;;;7.93;5.63;;;;;;;;;;5116115;28;20663;-72
2021/04/12 05:53:27;;;;;;;7.73;5.43;;;;;;;;;;5116728;28;20730;-72
2021/04/12 05:56:25;;;;;;;7.73;6.20;;;;;;;;;;5118055;28;20221;-73
2021/04/12 05:59:08;;;;;;;7.87;5.77;;;;;;;;;;5067794;28;20240;-72
2021/04/12 06:01:52;;;;;;;9.87;6.17;;;;;;;;;;5112666;28;20201;-72
2021/04/12 06:04:23;;;;;;;7.97;5.60;;;;;;;;;;5108872;28;20224;-73
2021/04/12 06:07:01;;;;;;;9.70;6.23;;;;;;;;;;5113113;28;20228;-72
2021/04/12 06:09:35;;;;;;;8.30;6.53;;;;;;;;;;5120283;28;20312;-73
2021/04/12 06:12:15;;;;;;;8.57;6.43;;;;;;;;;;5121632;28;20296;-73
2021/04/12 06:14:53;;;;;;;8.60;5.60;;;;;;;;;;5121771;28;20264;-72
2021/04/12 06:17:38;;;;;;;9.13;5.73;;;;;;;;;;5121629;28;20274;-74
2021/04/12 06:20:26;;;;;;;9.33;6.63;;;;;;;;;;5121800;28;20265;-74
2021/04/12 06:23:20;;;;;;;6.83;6.10;;;;;;;;;;5121740;28;20264;-73
2021/04/12 06:25:53;;;;;;;7.57;5.70;;;;;;;;;;5121111;28;20241;-72
2021/04/12 06:28:41;;;;;;;7.93;5.87;;;;;;;;;;5121279;27;20729;-75
2021/04/12 06:31:27;;;;;;;9.10;6.17;;;;;;;;;;5121360;28;20274;-74
2021/04/12 06:34:19;;;;;;;8.97;6.73;;;;;;;;;;5121323;27;20211;-75
2021/04/12 06:36:55;;;;;;;9.33;6.47;;;;;;;;;;5109910;28;20208;-74
2021/04/12 06:39:33;;;;;;;8.30;6.27;;;;;;;;;;5117400;28;20945;-75
2021/04/12 06:42:21;;;;;;;10.37;6.27;;;;;;;;;;5112666;28;20254;-74
2021/04/12 06:45:05;;;;;;;6.27;5.37;;;;;;;;;;5110045;28;20248;-75
2021/04/12 06:47:47;;;;;;;6.57;5.73;;;;;;;;;;5112373;28;20230;-75
2021/04/12 06:50:38;;;;;;;8.30;6.23;;;;;;;;;;5120896;28;20311;-76
2021/04/12 06:53:16;;;;;;;7.43;6.30;;;;;;;;;;5121207;28;20264;-74
2021/04/12 06:56:14;;;;;;;10.93;5.70;;;;;;;;;;5120508;28;20311;-75
2021/04/12 06:59:05;;;;;;;9.57;6.17;;;;;;;;;;5120774;28;20287;-75
2021/04/12 07:01:53;;;;;;;5.93;5.33;;;;;;;;;;5121009;28;20213;-74
2021/04/12 07:04:46;;;;;;;7.63;5.83;;;;;;;;;;5116095;28;20228;-74
2021/04/12 07:07:34;;;;;;;6.53;5.93;;;;;;;;;;5121168;28;20247;-75
2021/04/12 07:10:13;;;;;;;8.63;5.50;;;;;;;;;;5115502;27;20228;-70
2021/04/12 07:12:53;;;;;;;13.00;6.03;;;;;;;;;;5116463;27;20283;-70
2021/04/12 07:15:29;;;;;;;9.13;5.60;;;;;;;;;;5125803;27;20299;-69
2021/04/12 07:18:23;;;;;;;9.17;5.57;;;;;;;;;;5130133;27;20246;-68
2021/04/12 07:21:02;;;;;;;5.87;5.17;;;;;;;;;;5132179;27;20235;-69
2021/04/12 07:23:46;;;;;;;6.87;5.27;;;;;;;;;;5119979;28;20288;-70
2021/04/12 07:26:44;;;;;;;7.23;4.90;;;;;;;;;;5119951;28;20264;-71
2021/04/12 07:29:25;;;;;;;8.37;5.27;;;;;;;;;;5113241;28;20725;-70
2021/04/12 07:32:10;;;;;;;6.70;5.27;;;;;;;;;;5120815;27;20668;-68
2021/04/12 07:35:04;;;;;;;5.80;5.30;;;;;;;;;;5117229;28;20212;-69
2021/04/12 07:37:41;;;;;;;6.70;5.60;;;;;;;;;;5083385;28;20228;-69
2021/04/12 07:40:27;;;;;;;6.23;5.00;;;;;;;;;;5129247;27;20236;-69
2021/04/12 07:43:22;;;;;;;7.97;5.27;;;;;;;;;;5119670;28;20293;-69
2021/04/12 07:46:11;;;;;;;5.57;4.80;;;;;;;;;;5119860;28;20304;-69
2021/04/12 07:49:02;;;;;;;5.83;4.70;;;;;;;;;;5108468;28;20287;-69
2021/04/12 07:51:36;;;;;;;4.73;4.30;;;;;;;;;;5062510;28;20241;-69
2021/04/12 07:54:18;;;;;;;5.37;4.63;;;;;;;;;;5119644;28;20216;-69
2021/04/12 07:57:03;;;;;;;7.97;4.33;;;;;;;;;;5118616;28;20224;-70
2021/04/12 07:59:51;;;;;;;4.97;4.20;;;;;;;;;;5119083;28;20232;-70
2021/04/12 08:02:37;;;;;;;6.97;4.53;;;;;;;;;;5119588;28;20280;-69
2021/04/12 08:05:25;;;;;;;5.43;4.83;;;;;;;;;;5119802;27;20220;-69
2021/04/12 08:08:19;;;;;;;7.27;4.77;;;;;;;;;;5113968;27;20291;-70
2021/04/12 08:11:04;;;;;;;4.67;4.20;;;;;;;;;;5139209;27;20277;-69
2021/04/12 08:13:49;;;;;;;5.73;4.70;;;;;;;;;;5139327;27;20208;-69
2021/04/12 08:16:33;;;;;;;7.83;4.73;;;;;;;;;;5108144;27;20231;-70
2021/04/12 08:19:12;;;;;;;6.83;4.43;;;;;;;;;;5109313;27;20291;-70
2021/04/12 08:21:54;;;;;;;7.23;4.40;;;;;;;;;;5139877;27;20291;-70
2021/04/12 08:24:33;;;;;;;4.97;3.83;;;;;;;;;;5118772;27;20224;-70
2021/04/12 08:27:35;;;;;;;9.83;4.57;;;;;;;;;;5116354;28;20279;-70
2021/04/12 08:30:17;;;;;;;4.97;4.17;;;;;;;;;;5116024;28;20746;-70
2021/04/12 08:33:05;;;;;;;5.00;3.93;;;;;;;;;;5096204;27;20556;-69
2021/04/12 08:35:45;;;;;;;6.70;4.30;;;;;;;;;;5119671;27;20215;-70
2021/04/12 08:38:27;;;;;;;6.07;3.60;;;;;;;;;;5115671;28;20232;-70
2021/04/12 08:41:10;;;;;;;5.70;4.50;;;;;;;;;;5116805;27;20255;-70
2021/04/12 08:43:44;;;;;;;5.47;4.10;;;;;;;;;;5129466;27;20227;-70
2021/04/12 08:46:28;;;;;;;4.70;3.40;;;;;;;;;;5129056;27;20303;-69
2021/04/12 08:49:05;;;;;;;10.97;4.43;;;;;;;;;;5113307;28;20209;-68
2021/04/12 08:51:53;;;;;;;6.23;3.53;;;;;;;;;;5113973;28;20243;-71
2021/04/12 08:54:35;;;;;;;3.67;3.37;;;;;;;;;;5098614;28;20699;-70
2021/04/12 08:57:22;;;;;;;6.03;3.63;;;;;;;;;;5104082;28;20652;-70
2021/04/12 09:00:09;;;;;;;6.57;3.80;;;;;;;;;;5108953;28;20207;-70
2021/04/12 09:02:59;;;;;;;7.30;3.77;;;;;;;;;;5118016;28;20287;-70
2021/04/12 09:05:49;;;;;;;6.83;3.83;;;;;;;;;;5117703;28;20221;-70
2021/04/12 09:08:25;;;;;;;4.57;3.17;;;;;;;;;;5117807;28;20712;-70
2021/04/12 09:11:11;;;;;;;4.20;3.23;;;;;;;;;;5117436;28;20319;-68
2021/04/12 09:14:05;;;;;;;4.10;3.43;;;;;;;;;;5117985;28;20291;-70
2021/04/12 09:16:43;;;;;;;5.53;3.17;;;;;;;;;;5114518;28;20232;-71
2021/04/12 09:19:34;;;;;;;4.33;3.03;;;;;;;;;;5100028;28;20193;-71
2021/04/12 09:22:22;;;;;;;6.90;3.67;;;;;;;;;;5100882;28;20201;-74
2021/04/12 09:25:06;;;;;;;4.00;2.63;;;;;;;;;;5080993;28;20232;-74
2021/04/12 09:27:43;;;;;;;7.40;3.33;;;;;;;;;;5103842;27;20667;-75
2021/04/12 09:30:31;;;;;;;3.27;2.97;;;;;;;;;;5116580;28;20216;-75
2021/04/12 09:33:17;;;;;;;8.40;3.67;;;;;;;;;;5113042;28;20200;-73
2021/04/12 09:36:11;;;;;;;5.17;3.13;;;;;;;;;;5111065;28;20311;-73
2021/04/12 09:38:58;;;;;;;3.83;3.40;;;;;;;;;;5095011;28;20200;-72
2021/04/12 09:41:31;;;;;;;6.17;3.77;;;;;;;;;;5107425;28;20276;-72
2021/04/12 09:44:13;;;;;;;4.80;3.10;;;;;;;;;;5121428;28;20201;-72
2021/04/12 09:46:58;;;;;;;7.97;3.43;;;;;;;;;;5106626;28;20291;-73
2021/04/12 09:49:48;;;;;;;4.90;3.33;;;;;;;;;;5104628;28;20225;-73
2021/04/12 09:52:31;;;;;;;3.93;3.47;;;;;;;;;;5111134;28;20725;-73
2021/04/12 09:55:27;;;;;;;5.97;2.83;;;;;;;;;;5121393;27;20311;-73
2021/04/12 09:58:02;;;;;;;8.63;3.67;;;;;;;;;;5109940;28;20208;-72
2021/04/12 10:00:55;;;;;;;4.60;3.10;;;;;;;;;;5107520;28;20276;-72
2021/04/12 10:03:39;;;;;;;6.57;3.23;;;;;;;;;;5107988;28;20247;-72
2021/04/12 10:06:24;;;;;;;4.00;2.60;;;;;;;;;;5084874;28;20730;-74
2021/04/12 10:09:06;;;;;;;3.67;2.70;;;;;;;;;;5110440;27;20630;-74
2021/04/12 10:11:47;;;;;;;7.87;4.03;;;;;;;;;;5139120;27;20231;-74
2021/04/12 10:14:15;;;;;;;4.83;2.97;;;;;;;;;;5116118;28;20233;-73
2021/04/12 10:16:47;;;;;;;4.97;2.83;;;;;;;;;;5108770;28;20284;-74
2021/04/12 10:19:16;;;;;;;4.10;2.20;;;;;;;;;;5106030;28;20206;-74
2021/04/12 10:21:47;;;;;;;3.80;2.83;;;;;;;;;;5134093;27;20226;-73
2021/04/12 10:24:18;;;;;;;2.60;2.00;;;;;;;;;;5133740;27;20319;-74
2021/04/12 10:26:47;;;;;;;3.83;1.80;;;;;;;;;;5120825;28;20262;-73
2021/04/12 10:29:17;;;;;;;2.20;2.00;;;;;;;;;;5109684;28;20292;-73
2021/04/12 10:31:49;;;;;;;5.17;2.07;;;;;;;;;;5106993;28;20262;-73
2021/04/12 10:34:20;;;;;;;2.93;2.00;;;;;;;;;;5110626;28;20672;-74
2021/04/12 10:36:51;;;;;;;2.80;2.30;;;;;;;;;;5107077;28;20652;-73
2021/04/12 10:39:26;;;;;;;3.00;2.50;;;;;;;;;;5109734;28;20718;-74
2021/04/12 10:41:58;;;;;;;2.90;2.63;;;;;;;;;;5120820;28;20210;-73
2021/04/12 10:44:31;;;;;;;4.37;2.50;;;;;;;;;;5106905;28;20229;-73
2021/04/12 10:47:00;;;;;;;4.27;2.53;;;;;;;;;;5112628;28;20228;-73
2021/04/12 10:49:30;;;;;;;5.63;2.50;;;;;;;;;;5106932;28;20265;-73
2021/04/12 10:52:04;;;;;;;2.93;2.00;;;;;;;;;;5114729;28;20197;-73
2021/04/12 10:54:44;;;;;;;4.70;2.87;;;;;;;;;;5122294;27;20227;-73
2021/04/12 10:57:13;;;;;;;4.53;2.40;;;;;;;;;;5130242;27;20648;-73
2021/04/12 10:59:55;;;;;;;2.60;2.40;;;;;;;;;;5120272;28;20208;-73
2021/04/12 11:02:23;;;;;;;2.00;1.87;;;;;;;;;;5120081;28;20552;-73
2021/04/12 11:04:54;;;;;;;3.17;2.07;;;;;;;;;;5137213;27;20288;-73
2021/04/12 11:07:23;;;;;;;6.03;2.20;;;;;;;;;;5109331;27;20205;-74
2021/04/12 11:09:54;;;;;;;3.07;2.70;;;;;;;;;;5119833;28;20224;-74
2021/04/12 11:12:29;;;;;;;2.47;2.20;;;;;;;;;;5119445;28;20232;-74
2021/04/12 11:15:05;;;;;;;2.37;2.17;;;;;;;;;;5099664;28;20591;-74
2021/04/12 11:17:37;;;;;;;2.57;2.10;;;;;;;;;;5120139;28;20260;-74
2021/04/12 11:20:08;;;;;;;3.43;2.40;;;;;;;;;;5116740;28;20201;-74
2021/04/12 11:22:42;;;;;;;3.47;2.07;;;;;;;;;;5105464;28;20265;-74
2021/04/12 11:25:15;;;;;;;4.83;2.40;;;;;;;;;;5105667;28;20702;-73
2021/04/12 11:28:00;;;;;;;3.50;2.23;;;;;;;;;;5106216;28;20225;-73
2021/04/12 11:30:34;;;;;;;2.33;2.20;;;;;;;;;;5119076;28;20252;-72
2021/04/12 11:33:13;;;;;;;2.60;2.33;;;;;;;;;;5109219;28;20200;-73
2021/04/12 11:35:44;;;;;;;2.60;2.00;;;;;;;;;;5119113;28;20220;-73
2021/04/12 11:38:13;;;;;;;2.33;1.90;;;;;;;;;;5117982;28;20197;-74
2021/04/12 11:40:48;;;;;;;3.77;1.97;;;;;;;;;;5129385;27;20232;-74
2021/04/12 11:43:16;;;;;;;2.57;2.07;;;;;;;;;;5117864;28;20249;-74
2021/04/12 11:45:48;;;;;;;3.30;2.03;;;;;;;;;;5118825;28;20221;-74
2021/04/12 11:48:18;;;;;;;1.90;1.77;;;;;;;;;;5108042;28;20279;-74
2021/04/12 11:50:52;;;;;;;3.33;2.13;;;;;;;;;;5118810;28;20277;-74
2021/04/12 11:53:35;;;;;;;3.23;2.13;;;;;;;;;;5105790;28;20201;-74
2021/04/12 11:56:06;;;;;;;2.87;2.20;;;;;;;;;;5119025;28;20228;-74
2021/04/12 11:58:35;;;;;;;3.73;2.10;;;;;;;;;;5119141;28;20635;-74
2021/04/12 12:01:07;;;;;;;2.23;2.03;;;;;;;;;;5105258;28;20763;-74
2021/04/12 12:03:42;;;;;;;2.40;2.03;;;;;;;;;;5118985;28;20232;-74
2021/04/12 12:06:13;;;;;;;2.33;2.10;;;;;;;;;;5134604;27;20255;-74
2021/04/12 12:08:49;;;;;;;3.70;2.20;;;;;;;;;;5125865;27;20256;-74
2021/04/12 12:11:21;;;;;;;2.97;1.93;;;;;;;;;;5105298;27;20245;-74
2021/04/12 12:13:51;;;;;;;3.77;2.13;;;;;;;;;;5119023;28;20292;-73
2021/04/12 12:16:25;;;;;;;3.00;1.90;;;;;;;;;;5118860;27;20225;-73
2021/04/12 12:18:55;;;;;;;2.97;1.90;;;;;;;;;;5119156;28;20205;-74
2021/04/12 12:21:24;;;;;;;4.10;2.13;;;;;;;;;;5105231;28;20250;-74
2021/04/12 12:23:58;;;;;;;2.77;1.90;;;;;;;;;;5118664;28;20236;-74
2021/04/12 12:26:29;;;;;;;2.63;1.60;;;;;;;;;;5118385;28;20319;-74
2021/04/12 12:29:05;;;;;;;2.70;1.70;;;;;;;;;;5126980;27;20624;-74
2021/04/12 12:31:35;;;;;;;2.63;1.63;;;;;;;;;;5120469;27;20260;-74
2021/04/12 12:34:12;;;;;;;2.97;1.70;;;;;;;;;;5118397;28;20232;-74
2021/04/12 12:36:43;;;;;;;2.13;1.50;;;;;;;;;;5105492;28;20262;-74
2021/04/12 12:39:12;;;;;;;2.40;1.90;;;;;;;;;;5119665;27;20201;-73
2021/04/12 12:41:43;;;;;;;4.43;1.60;;;;;;;;;;5111450;27;20206;-73
2021/04/12 12:44:12;;;;;;;3.37;1.40;;;;;;;;;;5139138;27;20235;-74
2021/04/12 12:46:39;;;;;;;3.37;1.63;;;;;;;;;;5121474;27;20265;-76
2021/04/12 12:49:09;;;;;;;1.27;1.27;;;;;;;;;;5110121;28;20683;-73
2021/04/12 12:51:39;;;;;;;2.20;1.30;;;;;;;;;;5104946;28;20221;-73
2021/04/12 12:54:07;;;;;;;2.07;1.87;;;;;;;;;;5118041;27;20631;-72
2021/04/12 12:56:37;;;;;;;1.57;1.47;;;;;;;;;;5117949;28;20208;-73
2021/04/12 12:59:08;;;;;;;2.50;1.50;;;;;;;;;;5109207;28;20258;-73
2021/04/12 13:01:36;;;;;;;1.23;1.10;;;;;;;;;;5114328;28;20224;-74
2021/04/12 13:04:08;;;;;;;1.73;1.30;;;;;;;;;;5117564;28;20201;-74
2021/04/12 13:06:36;;;;;;;1.33;1.23;;;;;;;;;;5121895;27;20693;-74
2021/04/12 13:09:05;;;;;;;3.20;1.33;;;;;;;;;;5121083;27;20201;-75
2021/04/12 13:11:36;;;;;;;1.50;1.40;;;;;;;;;;5131743;27;20736;-74
2021/04/12 13:14:16;;;;;;;2.27;1.30;;;;;;;;;;5138632;27;20261;-74
2021/04/12 13:16:44;;;;;;;1.90;1.50;;;;;;;;;;5138224;27;20231;-73
2021/04/12 13:19:13;;;;;;;1.30;1.20;;;;;;;;;;5119447;27;20225;-74
2021/04/12 13:21:41;;;;;;;2.03;1.50;;;;;;;;;;5114511;28;20280;-75
2021/04/12 13:24:15;;;;;;;4.37;1.87;;;;;;;;;;5127742;27;20236;-74
2021/04/12 13:26:46;;;;;;;3.90;2.30;;;;;;;;;;5138323;27;20282;-74
2021/04/12 13:29:22;;;;;;;2.00;1.30;;;;;;;;;;5110970;27;20274;-74
2021/04/12 13:31:51;;;;;;;1.60;1.33;;;;;;;;;;5115267;28;20236;-74
2021/04/12 13:34:20;;;;;;;1.93;1.50;;;;;;;;;;5117510;28;20316;-74
2021/04/12 13:36:51;;;;;;;1.20;1.10;;;;;;;;;;5117774;28;20211;-73
2021/04/12 13:39:24;;;;;;;3.93;1.90;;;;;;;;;;5111389;28;20251;-74
2021/04/12 13:41:52;;;;;;;2.43;1.40;;;;;;;;;;5134437;28;20577;-74
2021/04/12 13:44:21;;;;;;;1.33;1.07;;;;;;;;;;5138249;27;20257;-73
2021/04/12 13:46:56;;;;;;;1.73;1.47;;;;;;;;;;5124266;27;20236;-73
2021/04/12 13:49:27;;;;;;;1.50;1.30;;;;;;;;;;5113392;28;20246;-73
2021/04/12 13:51:56;;;;;;;3.23;1.50;;;;;;;;;;5112591;28;20313;-74
2021/04/12 13:54:26;;;;;;;2.17;1.13;;;;;;;;;;5109383;28;20231;-74
2021/04/12 13:56:54;;;;;;;2.23;1.37;;;;;;;;;;5117489;28;20292;-73
2021/04/12 13:59:25;;;;;;;2.23;1.27;;;;;;;;;;5116495;28;20292;-74
2021/04/12 14:01:58;;;;;;;2.00;1.40;;;;;;;;;;5117245;28;20678;-73
2021/04/12 14:04:26;;;;;;;1.30;1.20;;;;;;;;;;5117065;28;20274;-74
2021/04/12 14:06:57;;;;;;;1.37;1.27;;;;;;;;;;5117509;28;20289;-73
2021/04/12 14:09:27;;;;;;;1.23;1.13;;;;;;;;;;5109185;28;20293;-74
2021/04/12 14:11:56;;;;;;;2.27;1.40;;;;;;;;;;5112353;28;20311;-73
2021/04/12 14:14:25;;;;;;;1.97;1.20;;;;;;;;;;5117339;28;20260;-74
2021/04/12 14:16:57;;;;;;;1.43;1.33;;;;;;;;;;5118174;28;20236;-74
2021/04/12 14:19:33;;;;;;;1.30;1.20;;;;;;;;;;5109660;28;20216;-74
2021/04/12 14:22:03;;;;;;;2.40;1.67;;;;;;;;;;5112704;28;20201;-73
2021/04/12 14:24:34;;;;;;;5.73;1.90;;;;;;;;;;5127165;28;20240;-74
2021/04/12 14:27:03;;;;;;;1.60;1.50;;;;;;;;;;5136203;27;20805;-73
2021/04/12 14:29:35;;;;;;;2.87;1.93;;;;;;;;;;5130632;27;20212;-73
2021/04/12 14:32:03;;;;;;;3.87;2.80;;;;;;;;;;5121219;28;20315;-74
2021/04/12 14:34:34;;;;;;;3.10;1.37;;;;;;;;;;5121074;28;20225;-74
2021/04/12 14:37:03;;;;;;;4.10;1.70;;;;;;;;;;5121011;28;20201;-74
2021/04/12 14:39:31;;;;;;;1.63;1.40;;;;;;;;;;5120465;28;20204;-73
2021/04/12 14:42:01;;;;;;;3.87;1.47;;;;;;;;;;5135257;27;20228;-73
2021/04/12 14:44:30;;;;;;;2.73;1.47;;;;;;;;;;5141619;27;20223;-74
2021/04/12 14:46:59;;;;;;;2.70;1.50;;;;;;;;;;5125855;27;20228;-72
2021/04/12 14:49:28;;;;;;;4.07;1.80;;;;;;;;;;5120272;28;20219;-72
2021/04/12 14:51:56;;;;;;;2.13;1.77;;;;;;;;;;5120887;28;20220;-73
2021/04/12 14:54:26;;;;;;;1.50;1.37;;;;;;;;;;5121909;27;20299;-72
2021/04/12 14:57:00;;;;;;;1.50;1.40;;;;;;;;;;5107635;27;20204;-73
2021/04/12 14:59:31;;;;;;;7.40;1.57;;;;;;;;;;5110087;27;20756;-72
2021/04/12 15:02:00;;;;;;;1.27;1.20;;;;;;;;;;5114043;27;20239;-72
2021/04/12 15:04:30;;;;;;;3.13;1.77;;;;;;;;;;5107795;28;20304;-71
2021/04/12 15:07:04;;;;;;;2.33;1.77;;;;;;;;;;5107216;28;20288;-73
2021/04/12 15:09:33;;;;;;;1.73;1.63;;;;;;;;;;5120263;27;20656;-74
2021/04/12 15:12:03;;;;;;;2.50;1.87;;;;;;;;;;5120349;28;20282;-74
2021/04/12 15:14:34;;;;;;;1.50;1.30;;;;;;;;;;5128699;27;20220;-74
2021/04/12 15:17:08;;;;;;;1.93;1.67;;;;;;;;;;5141249;27;20232;-72
2021/04/12 15:19:38;;;;;;;2.27;1.50;;;;;;;;;;5131854;27;20293;-73
2021/04/12 15:22:10;;;;;;;1.57;1.20;;;;;;;;;;5123295;27;20211;-73
2021/04/12 15:24:39;;;;;;;2.27;1.40;;;;;;;;;;5140234;27;20295;-73
2021/04/12 15:27:13;;;;;;;2.20;1.67;;;;;;;;;;5140836;27;20208;-73
2021/04/12 15:29:41;;;;;;;4.13;1.57;;;;;;;;;;5141099;27;20286;-73
2021/04/12 15:32:21;;;;;;;1.70;1.60;;;;;;;;;;5133608;27;20659;-73
2021/04/12 15:34:50;;;;;;;2.13;1.60;;;;;;;;;;5120336;28;20221;-72
2021/04/12 15:37:29;;;;;;;1.53;1.43;;;;;;;;;;5113243;28;20672;-71
2021/04/12 15:40:23;;;;;;;4.33;2.20;;;;;;;;;;5123667;27;20232;-73
2021/04/12 15:42:53;;;;;;;2.50;1.30;;;;;;;;;;5083560;28;20215;-72
2021/04/12 15:45:38;;;;;;;1.73;1.63;;;;;;;;;;5119592;28;20671;-72